sensor_id;sensor_type;location;lat;lon;timestamp;P1;durP1;ratioP1;P2;durP2;ratioP2
8048;SDS011;20935;42.660;23.342;2022-08-05T00:03:40;7.60;;;6.90;;
8048;SDS011;20935;42.660;23.342;2022-08-05T00:06:05;10.20;;;7.37;;
8048;SDS011;20935;42.660;23.342;2022-08-05T00:08:31;11.77;;;7.10;;
8048;SDS011;20935;42.660;23.342;2022-08-05T00:10:57;9.37;;;6.93;;
8048;SDS011;20935;42.660;23.342;2022-08-05T00:13:22;8.27;;;7.17;;
8048;SDS011;20935;42.660;23.342;2022-08-05T00:15:48;7.67;;;6.90;;
8048;SDS011;20935;42.660;23.342;2022-08-05T00:18:13;7.07;;;6.47;;
8048;SDS011;20935;42.660;23.342;2022-08-05T00:20:38;10.60;;;7.50;;
8048;SDS011;20935;42.660;23.342;2022-08-05T00:25:34;7.93;;;6.63;;
8048;SDS011;20935;42.660;23.342;2022-08-05T00:27:59;7.67;;;6.93;;
8048;SDS011;20935;42.660;23.342;2022-08-05T00:33:09;7.53;;;6.73;;
8048;SDS011;20935;42.660;23.342;2022-08-05T00:35:34;8.97;;;6.87;;
8048;SDS011;20935;42.660;23.342;2022-08-05T00:38:00;11.53;;;7.43;;
8048;SDS011;20935;42.660;23.342;2022-08-05T00:40:26;7.47;;;6.70;;
8048;SDS011;20935;42.660;23.342;2022-08-05T00:42:51;7.73;;;6.97;;
8048;SDS011;20935;42.660;23.342;2022-08-05T00:45:16;8.00;;;7.23;;
8048;SDS011;20935;42.660;23.342;2022-08-05T00:47:42;7.57;;;6.87;;
8048;SDS011;20935;42.660;23.342;2022-08-05T00:50:08;11.07;;;7.03;;
8048;SDS011;20935;42.660;23.342;2022-08-05T00:52:33;9.37;;;7.57;;
8048;SDS011;20935;42.660;23.342;2022-08-05T00:54:58;9.20;;;7.17;;
8048;SDS011;20935;42.660;23.342;2022-08-05T00:57:24;8.40;;;7.60;;
8048;SDS011;20935;42.660;23.342;2022-08-05T00:59:49;8.20;;;7.40;;
8048;SDS011;20935;42.660;23.342;2022-08-05T01:02:15;7.23;;;6.53;;
8048;SDS011;20935;42.660;23.342;2022-08-05T01:04:40;14.37;;;7.80;;
8048;SDS011;20935;42.660;23.342;2022-08-05T01:07:05;9.07;;;7.53;;
8048;SDS011;20935;42.660;23.342;2022-08-05T01:09:30;8.23;;;7.20;;
8048;SDS011;20935;42.660;23.342;2022-08-05T01:11:57;7.60;;;6.87;;
8048;SDS011;20935;42.660;23.342;2022-08-05T01:14:24;8.73;;;7.20;;
8048;SDS011;20935;42.660;23.342;2022-08-05T01:20:02;9.03;;;7.47;;
8048;SDS011;20935;42.660;23.342;2022-08-05T01:25:27;11.13;;;7.17;;
8048;SDS011;20935;42.660;23.342;2022-08-05T01:30:39;9.97;;;6.77;;
8048;SDS011;20935;42.660;23.342;2022-08-05T01:33:07;8.33;;;7.53;;
8048;SDS011;20935;42.660;23.342;2022-08-05T01:35:33;8.40;;;7.03;;
8048;SDS011;20935;42.660;23.342;2022-08-05T01:37:59;8.23;;;7.43;;
8048;SDS011;20935;42.660;23.342;2022-08-05T01:40:28;8.63;;;6.90;;
8048;SDS011;20935;42.660;23.342;2022-08-05T01:42:54;7.87;;;7.10;;
8048;SDS011;20935;42.660;23.342;2022-08-05T01:45:21;8.83;;;7.43;;
8048;SDS011;20935;42.660;23.342;2022-08-05T01:47:48;8.50;;;7.63;;
8048;SDS011;20935;42.660;23.342;2022-08-05T01:50:18;7.40;;;6.70;;
8048;SDS011;20935;42.660;23.342;2022-08-05T01:52:44;9.67;;;7.13;;
8048;SDS011;20935;42.660;23.342;2022-08-05T01:55:11;8.00;;;7.30;;
8048;SDS011;20935;42.660;23.342;2022-08-05T01:57:39;8.40;;;7.47;;
8048;SDS011;20935;42.660;23.342;2022-08-05T02:00:05;8.47;;;7.60;;
8048;SDS011;20935;42.660;23.342;2022-08-05T02:02:31;9.97;;;7.90;;
8048;SDS011;20935;42.660;23.342;2022-08-05T02:05:02;8.43;;;7.20;;
8048;SDS011;20935;42.660;23.342;2022-08-05T02:07:28;8.57;;;7.37;;
8048;SDS011;20935;42.660;23.342;2022-08-05T02:09:54;10.07;;;7.27;;
8048;SDS011;20935;42.660;23.342;2022-08-05T02:12:21;7.90;;;7.10;;
8048;SDS011;20935;42.660;23.342;2022-08-05T02:14:58;10.67;;;7.80;;
8048;SDS011;20935;42.660;23.342;2022-08-05T02:18:26;8.03;;;7.30;;
8048;SDS011;20935;42.660;23.342;2022-08-05T02:20:20;8.23;;;7.40;;
8048;SDS011;20935;42.660;23.342;2022-08-05T02:23:04;8.80;;;7.97;;
8048;SDS011;20935;42.660;23.342;2022-08-05T02:25:42;9.03;;;8.13;;
8048;SDS011;20935;42.660;23.342;2022-08-05T02:28:26;8.27;;;7.47;;
8048;SDS011;20935;42.660;23.342;2022-08-05T02:31:06;9.07;;;7.97;;
8048;SDS011;20935;42.660;23.342;2022-08-05T02:33:35;9.10;;;7.70;;
8048;SDS011;20935;42.660;23.342;2022-08-05T02:36:02;9.07;;;8.03;;
8048;SDS011;20935;42.660;23.342;2022-08-05T02:38:27;8.77;;;7.97;;
8048;SDS011;20935;42.660;23.342;2022-08-05T02:40:54;8.67;;;7.83;;
8048;SDS011;20935;42.660;23.342;2022-08-05T02:43:19;8.87;;;7.53;;
8048;SDS011;20935;42.660;23.342;2022-08-05T02:45:46;13.23;;;7.70;;
8048;SDS011;20935;42.660;23.342;2022-08-05T02:48:11;8.67;;;7.40;;
8048;SDS011;20935;42.660;23.342;2022-08-05T02:50:38;8.83;;;7.87;;
8048;SDS011;20935;42.660;23.342;2022-08-05T02:53:06;8.43;;;7.33;;
8048;SDS011;20935;42.660;23.342;2022-08-05T02:55:31;9.73;;;7.40;;
8048;SDS011;20935;42.660;23.342;2022-08-05T02:57:57;10.07;;;8.07;;
8048;SDS011;20935;42.660;23.342;2022-08-05T03:00:23;8.97;;;7.77;;
8048;SDS011;20935;42.660;23.342;2022-08-05T03:02:57;8.50;;;7.67;;
8048;SDS011;20935;42.660;23.342;2022-08-05T03:05:24;10.33;;;7.37;;
8048;SDS011;20935;42.660;23.342;2022-08-05T03:07:50;8.33;;;7.53;;
8048;SDS011;20935;42.660;23.342;2022-08-05T03:10:15;11.43;;;8.00;;
8048;SDS011;20935;42.660;23.342;2022-08-05T03:12:41;8.87;;;8.07;;
8048;SDS011;20935;42.660;23.342;2022-08-05T03:15:07;8.00;;;7.40;;
8048;SDS011;20935;42.660;23.342;2022-08-05T03:20:01;9.20;;;8.20;;
8048;SDS011;20935;42.660;23.342;2022-08-05T03:22:36;10.87;;;8.37;;
8048;SDS011;20935;42.660;23.342;2022-08-05T03:25:01;9.17;;;7.67;;
8048;SDS011;20935;42.660;23.342;2022-08-05T03:27:38;9.03;;;8.10;;
8048;SDS011;20935;42.660;23.342;2022-08-05T03:30:03;8.87;;;7.97;;
8048;SDS011;20935;42.660;23.342;2022-08-05T03:32:29;8.63;;;7.67;;
8048;SDS011;20935;42.660;23.342;2022-08-05T03:34:54;9.10;;;8.30;;
8048;SDS011;20935;42.660;23.342;2022-08-05T03:37:19;8.80;;;8.03;;
8048;SDS011;20935;42.660;23.342;2022-08-05T03:39:53;9.40;;;7.47;;
8048;SDS011;20935;42.660;23.342;2022-08-05T03:42:18;8.70;;;7.90;;
8048;SDS011;20935;42.660;23.342;2022-08-05T03:47:27;8.93;;;8.03;;
8048;SDS011;20935;42.660;23.342;2022-08-05T03:49:52;9.93;;;7.70;;
8048;SDS011;20935;42.660;23.342;2022-08-05T03:52:36;8.47;;;7.70;;
8048;SDS011;20935;42.660;23.342;2022-08-05T03:55:09;8.33;;;7.50;;
8048;SDS011;20935;42.660;23.342;2022-08-05T03:57:36;8.67;;;7.87;;
8048;SDS011;20935;42.660;23.342;2022-08-05T04:00:06;9.73;;;7.97;;
8048;SDS011;20935;42.660;23.342;2022-08-05T04:02:32;11.03;;;7.73;;
8048;SDS011;20935;42.660;23.342;2022-08-05T04:04:58;9.53;;;8.13;;
8048;SDS011;20935;42.660;23.342;2022-08-05T04:07:25;8.60;;;7.70;;
8048;SDS011;20935;42.660;23.342;2022-08-05T04:09:57;9.13;;;8.23;;
8048;SDS011;20935;42.660;23.342;2022-08-05T04:12:23;9.50;;;8.27;;
8048;SDS011;20935;42.660;23.342;2022-08-05T04:14:48;9.53;;;8.23;;
8048;SDS011;20935;42.660;23.342;2022-08-05T04:17:14;9.07;;;7.73;;
8048;SDS011;20935;42.660;23.342;2022-08-05T04:19:43;9.03;;;8.13;;
8048;SDS011;20935;42.660;23.342;2022-08-05T04:22:16;8.63;;;7.90;;
8048;SDS011;20935;42.660;23.342;2022-08-05T04:24:42;7.70;;;6.97;;
8048;SDS011;20935;42.660;23.342;2022-08-05T04:27:07;9.07;;;8.17;;
8048;SDS011;20935;42.660;23.342;2022-08-05T04:29:33;8.83;;;7.90;;
8048;SDS011;20935;42.660;23.342;2022-08-05T04:32:00;8.47;;;7.67;;
8048;SDS011;20935;42.660;23.342;2022-08-05T04:36:54;8.30;;;7.50;;
8048;SDS011;20935;42.660;23.342;2022-08-05T04:42:15;7.70;;;6.97;;
8048;SDS011;20935;42.660;23.342;2022-08-05T04:44:40;8.80;;;7.27;;
8048;SDS011;20935;42.660;23.342;2022-08-05T04:47:06;8.57;;;7.67;;
8048;SDS011;20935;42.660;23.342;2022-08-05T04:49:31;8.30;;;7.43;;
8048;SDS011;20935;42.660;23.342;2022-08-05T04:54:49;10.13;;;7.40;;
8048;SDS011;20935;42.660;23.342;2022-08-05T04:57:14;8.03;;;7.33;;
8048;SDS011;20935;42.660;23.342;2022-08-05T04:59:39;8.17;;;7.37;;
8048;SDS011;20935;42.660;23.342;2022-08-05T05:02:05;8.27;;;7.47;;
8048;SDS011;20935;42.660;23.342;2022-08-05T05:04:30;8.57;;;7.70;;
8048;SDS011;20935;42.660;23.342;2022-08-05T05:06:55;8.07;;;7.37;;
8048;SDS011;20935;42.660;23.342;2022-08-05T05:09:21;8.50;;;7.63;;
8048;SDS011;20935;42.660;23.342;2022-08-05T05:11:46;8.63;;;7.77;;
8048;SDS011;20935;42.660;23.342;2022-08-05T05:14:11;8.60;;;7.70;;
8048;SDS011;20935;42.660;23.342;2022-08-05T05:16:37;9.53;;;7.03;;
8048;SDS011;20935;42.660;23.342;2022-08-05T05:19:02;11.20;;;7.50;;
8048;SDS011;20935;42.660;23.342;2022-08-05T05:21:27;7.70;;;7.00;;
8048;SDS011;20935;42.660;23.342;2022-08-05T05:23:53;9.77;;;8.77;;
8048;SDS011;20935;42.660;23.342;2022-08-05T05:28:53;14.87;;;8.40;;
8048;SDS011;20935;42.660;23.342;2022-08-05T05:31:18;9.00;;;7.80;;
8048;SDS011;20935;42.660;23.342;2022-08-05T05:33:44;10.10;;;8.43;;
8048;SDS011;20935;42.660;23.342;2022-08-05T05:36:09;10.57;;;7.83;;
8048;SDS011;20935;42.660;23.342;2022-08-05T05:38:34;9.97;;;8.13;;
8048;SDS011;20935;42.660;23.342;2022-08-05T05:40:59;8.63;;;7.93;;
8048;SDS011;20935;42.660;23.342;2022-08-05T05:43:25;9.30;;;8.50;;
8048;SDS011;20935;42.660;23.342;2022-08-05T05:45:50;9.97;;;8.30;;
8048;SDS011;20935;42.660;23.342;2022-08-05T05:48:15;9.23;;;7.10;;
8048;SDS011;20935;42.660;23.342;2022-08-05T05:50:40;8.63;;;7.80;;
8048;SDS011;20935;42.660;23.342;2022-08-05T05:53:06;10.47;;;8.87;;
8048;SDS011;20935;42.660;23.342;2022-08-05T05:55:33;9.23;;;8.33;;
8048;SDS011;20935;42.660;23.342;2022-08-05T05:57:58;9.27;;;8.23;;
8048;SDS011;20935;42.660;23.342;2022-08-05T06:00:39;9.73;;;8.83;;
8048;SDS011;20935;42.660;23.342;2022-08-05T06:03:04;12.67;;;8.77;;
8048;SDS011;20935;42.660;23.342;2022-08-05T06:05:30;10.97;;;8.73;;
8048;SDS011;20935;42.660;23.342;2022-08-05T06:07:55;10.90;;;9.00;;
8048;SDS011;20935;42.660;23.342;2022-08-05T06:10:20;11.90;;;8.77;;
8048;SDS011;20935;42.660;23.342;2022-08-05T06:12:46;11.77;;;8.80;;
8048;SDS011;20935;42.660;23.342;2022-08-05T06:15:11;9.83;;;8.87;;
8048;SDS011;20935;42.660;23.342;2022-08-05T06:17:36;10.23;;;8.80;;
8048;SDS011;20935;42.660;23.342;2022-08-05T06:20:03;10.63;;;8.80;;
8048;SDS011;20935;42.660;23.342;2022-08-05T06:22:29;10.00;;;9.03;;
8048;SDS011;20935;42.660;23.342;2022-08-05T06:24:55;9.87;;;8.87;;
8048;SDS011;20935;42.660;23.342;2022-08-05T06:27:20;8.70;;;7.97;;
8048;SDS011;20935;42.660;23.342;2022-08-05T06:29:46;11.70;;;9.00;;
8048;SDS011;20935;42.660;23.342;2022-08-05T06:32:11;12.03;;;8.43;;
8048;SDS011;20935;42.660;23.342;2022-08-05T06:34:36;9.43;;;8.50;;
8048;SDS011;20935;42.660;23.342;2022-08-05T06:37:02;9.90;;;7.90;;
8048;SDS011;20935;42.660;23.342;2022-08-05T06:39:27;8.07;;;7.27;;
8048;SDS011;20935;42.660;23.342;2022-08-05T06:41:53;9.03;;;8.10;;
8048;SDS011;20935;42.660;23.342;2022-08-05T06:44:18;8.93;;;6.93;;
8048;SDS011;20935;42.660;23.342;2022-08-05T06:46:44;7.40;;;6.70;;
8048;SDS011;20935;42.660;23.342;2022-08-05T06:49:09;7.10;;;6.40;;
8048;SDS011;20935;42.660;23.342;2022-08-05T06:51:34;7.43;;;6.40;;
8048;SDS011;20935;42.660;23.342;2022-08-05T06:54:01;6.10;;;5.60;;
8048;SDS011;20935;42.660;23.342;2022-08-05T06:56:27;6.20;;;5.30;;
8048;SDS011;20935;42.660;23.342;2022-08-05T06:58:53;6.30;;;5.60;;
8048;SDS011;20935;42.660;23.342;2022-08-05T07:01:19;6.70;;;5.93;;
8048;SDS011;20935;42.660;23.342;2022-08-05T07:03:44;6.83;;;5.67;;
8048;SDS011;20935;42.660;23.342;2022-08-05T07:06:09;8.03;;;5.90;;
8048;SDS011;20935;42.660;23.342;2022-08-05T07:08:35;6.43;;;5.10;;
8048;SDS011;20935;42.660;23.342;2022-08-05T07:11:01;6.57;;;5.97;;
8048;SDS011;20935;42.660;23.342;2022-08-05T07:13:26;9.80;;;5.63;;
8048;SDS011;20935;42.660;23.342;2022-08-05T07:16:10;7.10;;;6.30;;
8048;SDS011;20935;42.660;23.342;2022-08-05T07:18:54;7.83;;;5.90;;
8048;SDS011;20935;42.660;23.342;2022-08-05T07:21:21;7.20;;;5.53;;
8048;SDS011;20935;42.660;23.342;2022-08-05T07:23:47;6.50;;;5.90;;
8048;SDS011;20935;42.660;23.342;2022-08-05T07:26:13;8.37;;;6.00;;
8048;SDS011;20935;42.660;23.342;2022-08-05T07:28:38;7.57;;;5.97;;
8048;SDS011;20935;42.660;23.342;2022-08-05T07:31:05;8.00;;;5.97;;
8048;SDS011;20935;42.660;23.342;2022-08-05T07:33:30;8.97;;;6.00;;
8048;SDS011;20935;42.660;23.342;2022-08-05T07:35:55;7.67;;;5.43;;
8048;SDS011;20935;42.660;23.342;2022-08-05T07:38:21;17.43;;;6.40;;
8048;SDS011;20935;42.660;23.342;2022-08-05T07:40:46;8.73;;;5.87;;
8048;SDS011;20935;42.660;23.342;2022-08-05T07:43:11;11.33;;;5.60;;
8048;SDS011;20935;42.660;23.342;2022-08-05T07:45:38;5.77;;;5.17;;
8048;SDS011;20935;42.660;23.342;2022-08-05T07:48:03;7.03;;;5.83;;
8048;SDS011;20935;42.660;23.342;2022-08-05T07:50:29;9.30;;;6.40;;
8048;SDS011;20935;42.660;23.342;2022-08-05T07:52:55;7.13;;;5.30;;
8048;SDS011;20935;42.660;23.342;2022-08-05T07:55:20;6.23;;;5.17;;
8048;SDS011;20935;42.660;23.342;2022-08-05T07:57:45;8.30;;;5.00;;
8048;SDS011;20935;42.660;23.342;2022-08-05T08:00:11;8.33;;;5.57;;
8048;SDS011;20935;42.660;23.342;2022-08-05T08:02:38;8.13;;;5.50;;
8048;SDS011;20935;42.660;23.342;2022-08-05T08:05:04;6.37;;;5.57;;
8048;SDS011;20935;42.660;23.342;2022-08-05T08:07:29;6.70;;;5.20;;
8048;SDS011;20935;42.660;23.342;2022-08-05T08:09:54;5.97;;;5.33;;
8048;SDS011;20935;42.660;23.342;2022-08-05T08:12:20;7.53;;;5.00;;
8048;SDS011;20935;42.660;23.342;2022-08-05T08:14:45;6.80;;;4.90;;
8048;SDS011;20935;42.660;23.342;2022-08-05T08:17:11;6.30;;;4.77;;
8048;SDS011;20935;42.660;23.342;2022-08-05T08:19:36;6.67;;;5.20;;
8048;SDS011;20935;42.660;23.342;2022-08-05T08:22:02;7.33;;;5.20;;
8048;SDS011;20935;42.660;23.342;2022-08-05T08:24:28;5.30;;;4.80;;
8048;SDS011;20935;42.660;23.342;2022-08-05T08:26:53;7.43;;;4.67;;
8048;SDS011;20935;42.660;23.342;2022-08-05T08:29:18;5.37;;;4.47;;
8048;SDS011;20935;42.660;23.342;2022-08-05T08:31:43;5.87;;;5.23;;
8048;SDS011;20935;42.660;23.342;2022-08-05T08:34:09;5.30;;;4.80;;
8048;SDS011;20935;42.660;23.342;2022-08-05T08:36:34;5.30;;;4.57;;
8048;SDS011;20935;42.660;23.342;2022-08-05T08:38:59;5.13;;;4.73;;
8048;SDS011;20935;42.660;23.342;2022-08-05T08:41:25;5.40;;;4.90;;
8048;SDS011;20935;42.660;23.342;2022-08-05T08:43:51;5.20;;;4.70;;
8048;SDS011;20935;42.660;23.342;2022-08-05T08:46:19;9.50;;;4.87;;
8048;SDS011;20935;42.660;23.342;2022-08-05T08:48:44;6.27;;;4.73;;
8048;SDS011;20935;42.660;23.342;2022-08-05T08:51:10;5.47;;;4.70;;
8048;SDS011;20935;42.660;23.342;2022-08-05T08:53:37;5.03;;;4.50;;
8048;SDS011;20935;42.660;23.342;2022-08-05T08:56:03;4.70;;;4.07;;
8048;SDS011;20935;42.660;23.342;2022-08-05T08:58:28;4.80;;;3.80;;
8048;SDS011;20935;42.660;23.342;2022-08-05T09:00:54;6.00;;;3.80;;
8048;SDS011;20935;42.660;23.342;2022-08-05T09:03:20;6.13;;;4.20;;
8048;SDS011;20935;42.660;23.342;2022-08-05T09:05:46;4.33;;;3.90;;
8048;SDS011;20935;42.660;23.342;2022-08-05T09:08:11;10.93;;;4.30;;
8048;SDS011;20935;42.660;23.342;2022-08-05T09:10:39;4.10;;;3.70;;
8048;SDS011;20935;42.660;23.342;2022-08-05T09:13:04;5.45;;;4.07;;
8048;SDS011;20935;42.660;23.342;2022-08-05T09:15:29;6.73;;;3.63;;
8048;SDS011;20935;42.660;23.342;2022-08-05T09:17:55;3.47;;;3.17;;
8048;SDS011;20935;42.660;23.342;2022-08-05T09:20:20;4.03;;;3.43;;
8048;SDS011;20935;42.660;23.342;2022-08-05T09:23:02;6.10;;;3.57;;
8048;SDS011;20935;42.660;23.342;2022-08-05T09:25:28;4.70;;;3.17;;
8048;SDS011;20935;42.660;23.342;2022-08-05T09:27:53;6.23;;;3.30;;
8048;SDS011;20935;42.660;23.342;2022-08-05T09:30:21;5.13;;;3.22;;
8048;SDS011;20935;42.660;23.342;2022-08-05T09:32:47;6.07;;;3.40;;
8048;SDS011;20935;42.660;23.342;2022-08-05T09:35:13;3.30;;;3.00;;
8048;SDS011;20935;42.660;23.342;2022-08-05T09:37:57;4.70;;;3.42;;
8048;SDS011;20935;42.660;23.342;2022-08-05T09:42:57;3.72;;;3.20;;
8048;SDS011;20935;42.660;23.342;2022-08-05T09:45:39;4.50;;;3.22;;
8048;SDS011;20935;42.660;23.342;2022-08-05T09:48:18;3.17;;;2.97;;
8048;SDS011;20935;42.660;23.342;2022-08-05T09:50:47;5.43;;;3.22;;
8048;SDS011;20935;42.660;23.342;2022-08-05T09:53:12;3.42;;;3.00;;
8048;SDS011;20935;42.660;23.342;2022-08-05T09:55:37;3.53;;;3.30;;
8048;SDS011;20935;42.660;23.342;2022-08-05T09:58:13;3.78;;;3.30;;
8048;SDS011;20935;42.660;23.342;2022-08-05T10:00:39;3.80;;;3.50;;
8048;SDS011;20935;42.660;23.342;2022-08-05T10:03:08;5.53;;;3.75;;
8048;SDS011;20935;42.660;23.342;2022-08-05T10:05:33;4.72;;;3.97;;
8048;SDS011;20935;42.660;23.342;2022-08-05T10:08:00;4.80;;;3.42;;
8048;SDS011;20935;42.660;23.342;2022-08-05T10:10:27;7.15;;;3.65;;
8048;SDS011;20935;42.660;23.342;2022-08-05T10:12:56;3.90;;;3.60;;
8048;SDS011;20935;42.660;23.342;2022-08-05T10:20:27;4.22;;;3.22;;
8048;SDS011;20935;42.660;23.342;2022-08-05T10:22:52;3.85;;;3.53;;
8048;SDS011;20935;42.660;23.342;2022-08-05T10:25:18;8.70;;;3.90;;
8048;SDS011;20935;42.660;23.342;2022-08-05T10:27:43;3.92;;;3.53;;
8048;SDS011;20935;42.660;23.342;2022-08-05T10:30:09;4.13;;;3.53;;
8048;SDS011;20935;42.660;23.342;2022-08-05T10:32:34;13.73;;;4.25;;
8048;SDS011;20935;42.660;23.342;2022-08-05T10:34:59;5.82;;;3.60;;
8048;SDS011;20935;42.660;23.342;2022-08-05T10:37:25;3.95;;;3.63;;
8048;SDS011;20935;42.660;23.342;2022-08-05T10:39:53;7.22;;;3.88;;
8048;SDS011;20935;42.660;23.342;2022-08-05T10:42:21;4.60;;;4.20;;
8048;SDS011;20935;42.660;23.342;2022-08-05T10:44:47;4.18;;;3.88;;
8048;SDS011;20935;42.660;23.342;2022-08-05T10:47:13;4.57;;;4.18;;
8048;SDS011;20935;42.660;23.342;2022-08-05T10:52:41;4.35;;;4.00;;
8048;SDS011;20935;42.660;23.342;2022-08-05T10:55:11;4.57;;;3.97;;
8048;SDS011;20935;42.660;23.342;2022-08-05T10:57:37;4.22;;;3.83;;
8048;SDS011;20935;42.660;23.342;2022-08-05T11:00:18;4.45;;;3.63;;
8048;SDS011;20935;42.660;23.342;2022-08-05T11:05:23;4.40;;;4.00;;
8048;SDS011;20935;42.660;23.342;2022-08-05T11:08:30;4.93;;;4.15;;
8048;SDS011;20935;42.660;23.342;2022-08-05T11:10:37;4.57;;;3.75;;
8048;SDS011;20935;42.660;23.342;2022-08-05T11:13:04;4.38;;;3.97;;
8048;SDS011;20935;42.660;23.342;2022-08-05T11:15:34;4.45;;;4.05;;
8048;SDS011;20935;42.660;23.342;2022-08-05T11:18:08;4.40;;;4.00;;
8048;SDS011;20935;42.660;23.342;2022-08-05T11:22:58;5.50;;;3.92;;
8048;SDS011;20935;42.660;23.342;2022-08-05T11:25:36;4.90;;;3.58;;
8048;SDS011;20935;42.660;23.342;2022-08-05T11:31:16;4.13;;;3.80;;
8048;SDS011;20935;42.660;23.342;2022-08-05T11:33:32;5.82;;;4.25;;
8048;SDS011;20935;42.660;23.342;2022-08-05T11:35:58;5.78;;;4.18;;
8048;SDS011;20935;42.660;23.342;2022-08-05T11:43:42;6.80;;;4.07;;
8048;SDS011;20935;42.660;23.342;2022-08-05T11:46:08;7.65;;;4.53;;
8048;SDS011;20935;42.660;23.342;2022-08-05T11:48:34;4.07;;;3.70;;
8048;SDS011;20935;42.660;23.342;2022-08-05T11:51:00;6.03;;;3.97;;
8048;SDS011;20935;42.660;23.342;2022-08-05T11:53:25;5.03;;;3.83;;
8048;SDS011;20935;42.660;23.342;2022-08-05T11:55:55;6.40;;;4.18;;
8048;SDS011;20935;42.660;23.342;2022-08-05T11:58:39;4.43;;;4.05;;
8048;SDS011;20935;42.660;23.342;2022-08-05T12:01:12;4.97;;;3.85;;
8048;SDS011;20935;42.660;23.342;2022-08-05T12:03:45;7.50;;;3.80;;
8048;SDS011;20935;42.660;23.342;2022-08-05T12:06:11;5.13;;;4.20;;
8048;SDS011;20935;42.660;23.342;2022-08-05T12:08:46;4.03;;;3.60;;
8048;SDS011;20935;42.660;23.342;2022-08-05T12:16:18;4.03;;;3.67;;
8048;SDS011;20935;42.660;23.342;2022-08-05T12:18:43;4.97;;;3.75;;
8048;SDS011;20935;42.660;23.342;2022-08-05T12:21:12;4.57;;;3.72;;
8048;SDS011;20935;42.660;23.342;2022-08-05T12:23:38;4.70;;;4.03;;
8048;SDS011;20935;42.660;23.342;2022-08-05T12:26:03;5.93;;;3.60;;
8048;SDS011;20935;42.660;23.342;2022-08-05T12:28:35;5.22;;;3.83;;
8048;SDS011;20935;42.660;23.342;2022-08-05T12:31:01;4.50;;;3.78;;
8048;SDS011;20935;42.660;23.342;2022-08-05T12:33:26;4.78;;;3.90;;
8048;SDS011;20935;42.660;23.342;2022-08-05T12:35:52;4.38;;;3.92;;
8048;SDS011;20935;42.660;23.342;2022-08-05T12:38:18;4.57;;;4.18;;
8048;SDS011;20935;42.660;23.342;2022-08-05T12:40:43;4.13;;;3.83;;
8048;SDS011;20935;42.660;23.342;2022-08-05T12:43:09;5.18;;;3.95;;
8048;SDS011;20935;42.660;23.342;2022-08-05T12:45:34;4.10;;;3.70;;
8048;SDS011;20935;42.660;23.342;2022-08-05T12:48:12;4.45;;;3.97;;
8048;SDS011;20935;42.660;23.342;2022-08-05T12:50:37;4.13;;;3.83;;
8048;SDS011;20935;42.660;23.342;2022-08-05T12:53:02;4.18;;;3.78;;
8048;SDS011;20935;42.660;23.342;2022-08-05T12:55:29;4.32;;;3.92;;
8048;SDS011;20935;42.660;23.342;2022-08-05T12:57:55;4.80;;;4.30;;
8048;SDS011;20935;42.660;23.342;2022-08-05T13:00:21;5.18;;;3.88;;
8048;SDS011;20935;42.660;23.342;2022-08-05T13:02:47;6.25;;;4.30;;
8048;SDS011;20935;42.660;23.342;2022-08-05T13:05:12;4.45;;;4.15;;
8048;SDS011;20935;42.660;23.342;2022-08-05T13:07:39;5.18;;;4.45;;
8048;SDS011;20935;42.660;23.342;2022-08-05T13:10:09;4.75;;;4.35;;
8048;SDS011;20935;42.660;23.342;2022-08-05T13:12:38;4.88;;;4.20;;
8048;SDS011;20935;42.660;23.342;2022-08-05T13:15:03;5.35;;;4.65;;
8048;SDS011;20935;42.660;23.342;2022-08-05T13:17:30;10.63;;;4.28;;
8048;SDS011;20935;42.660;23.342;2022-08-05T13:20:00;5.03;;;4.63;;
8048;SDS011;20935;42.660;23.342;2022-08-05T13:22:26;4.63;;;3.97;;
8048;SDS011;20935;42.660;23.342;2022-08-05T13:24:52;5.10;;;4.70;;
8048;SDS011;20935;42.660;23.342;2022-08-05T13:27:30;5.88;;;4.35;;
8048;SDS011;20935;42.660;23.342;2022-08-05T13:29:56;4.68;;;4.13;;
8048;SDS011;20935;42.660;23.342;2022-08-05T13:32:21;4.93;;;4.43;;
8048;SDS011;20935;42.660;23.342;2022-08-05T13:34:47;6.60;;;4.15;;
8048;SDS011;20935;42.660;23.342;2022-08-05T13:37:13;4.90;;;4.50;;
8048;SDS011;20935;42.660;23.342;2022-08-05T13:39:39;6.03;;;4.70;;
8048;SDS011;20935;42.660;23.342;2022-08-05T13:42:04;6.72;;;4.30;;
8048;SDS011;20935;42.660;23.342;2022-08-05T13:44:29;6.47;;;4.32;;
8048;SDS011;20935;42.660;23.342;2022-08-05T13:46:55;5.75;;;4.30;;
8048;SDS011;20935;42.660;23.342;2022-08-05T13:49:20;4.43;;;3.85;;
8048;SDS011;20935;42.660;23.342;2022-08-05T13:51:45;4.88;;;4.05;;
8048;SDS011;20935;42.660;23.342;2022-08-05T13:54:10;5.20;;;3.78;;
8048;SDS011;20935;42.660;23.342;2022-08-05T13:56:36;4.88;;;3.97;;
8048;SDS011;20935;42.660;23.342;2022-08-05T13:59:01;3.92;;;3.63;;
8048;SDS011;20935;42.660;23.342;2022-08-05T14:01:26;4.80;;;3.63;;
8048;SDS011;20935;42.660;23.342;2022-08-05T14:03:52;6.60;;;3.72;;
8048;SDS011;20935;42.660;23.342;2022-08-05T14:06:37;4.50;;;3.60;;
8048;SDS011;20935;42.660;23.342;2022-08-05T14:09:03;4.18;;;3.80;;
8048;SDS011;20935;42.660;23.342;2022-08-05T14:11:28;6.60;;;3.95;;
8048;SDS011;20935;42.660;23.342;2022-08-05T14:13:54;3.72;;;3.42;;
8048;SDS011;20935;42.660;23.342;2022-08-05T14:16:19;4.05;;;3.70;;
8048;SDS011;20935;42.660;23.342;2022-08-05T14:18:45;3.97;;;3.35;;
8048;SDS011;20935;42.660;23.342;2022-08-05T14:21:10;3.40;;;3.08;;
8048;SDS011;20935;42.660;23.342;2022-08-05T14:23:35;4.60;;;3.25;;
8048;SDS011;20935;42.660;23.342;2022-08-05T14:26:01;7.40;;;3.80;;
8048;SDS011;20935;42.660;23.342;2022-08-05T14:28:26;3.75;;;3.28;;
8048;SDS011;20935;42.660;23.342;2022-08-05T14:30:52;4.80;;;3.53;;
8048;SDS011;20935;42.660;23.342;2022-08-05T14:33:17;3.95;;;3.65;;
8048;SDS011;20935;42.660;23.342;2022-08-05T14:35:42;4.28;;;3.88;;
8048;SDS011;20935;42.660;23.342;2022-08-05T14:38:07;3.63;;;3.33;;
8048;SDS011;20935;42.660;23.342;2022-08-05T14:40:33;4.10;;;3.40;;
8048;SDS011;20935;42.660;23.342;2022-08-05T14:42:58;4.07;;;3.67;;
8048;SDS011;20935;42.660;23.342;2022-08-05T14:45:23;5.18;;;3.28;;
8048;SDS011;20935;42.660;23.342;2022-08-05T14:47:49;4.85;;;3.20;;
8048;SDS011;20935;42.660;23.342;2022-08-05T14:50:14;3.30;;;3.00;;
8048;SDS011;20935;42.660;23.342;2022-08-05T14:52:39;4.18;;;3.10;;
8048;SDS011;20935;42.660;23.342;2022-08-05T14:55:05;4.38;;;3.35;;
8048;SDS011;20935;42.660;23.342;2022-08-05T14:57:30;3.63;;;3.33;;
8048;SDS011;20935;42.660;23.342;2022-08-05T14:59:56;3.88;;;3.58;;
8048;SDS011;20935;42.660;23.342;2022-08-05T15:02:21;3.67;;;3.22;;
8048;SDS011;20935;42.660;23.342;2022-08-05T15:04:46;3.55;;;3.25;;
8048;SDS011;20935;42.660;23.342;2022-08-05T15:07:12;4.13;;;3.60;;
8048;SDS011;20935;42.660;23.342;2022-08-05T15:09:37;4.05;;;3.33;;
8048;SDS011;20935;42.660;23.342;2022-08-05T15:12:03;4.22;;;3.45;;
8048;SDS011;20935;42.660;23.342;2022-08-05T15:14:28;4.50;;;3.65;;
8048;SDS011;20935;42.660;23.342;2022-08-05T15:16:53;4.28;;;3.83;;
8048;SDS011;20935;42.660;23.342;2022-08-05T15:19:19;5.28;;;3.42;;
8048;SDS011;20935;42.660;23.342;2022-08-05T15:21:44;3.33;;;3.05;;
8048;SDS011;20935;42.660;23.342;2022-08-05T15:24:09;4.95;;;3.35;;
8048;SDS011;20935;42.660;23.342;2022-08-05T15:26:34;4.68;;;3.55;;
8048;SDS011;20935;42.660;23.342;2022-08-05T15:29:00;3.72;;;3.33;;
8048;SDS011;20935;42.660;23.342;2022-08-05T15:31:25;4.05;;;3.55;;
8048;SDS011;20935;42.660;23.342;2022-08-05T15:33:50;4.15;;;3.25;;
8048;SDS011;20935;42.660;23.342;2022-08-05T15:36:16;3.40;;;3.10;;
8048;SDS011;20935;42.660;23.342;2022-08-05T15:38:41;3.83;;;3.45;;
8048;SDS011;20935;42.660;23.342;2022-08-05T15:41:06;5.03;;;3.38;;
8048;SDS011;20935;42.660;23.342;2022-08-05T15:43:32;4.82;;;3.30;;
8048;SDS011;20935;42.660;23.342;2022-08-05T15:45:59;3.83;;;3.25;;